createdAt,value
2019-05-30T00:02:05.214Z,16.04
2019-05-30T00:04:34.849Z,16.03
2019-05-30T00:07:04.787Z,16.05
2019-05-30T00:09:34.438Z,15.85
2019-05-30T00:12:05.057Z,15.78
2019-05-30T00:14:34.748Z,15.77
2019-05-30T00:17:05.114Z,15.78
2019-05-30T00:19:34.760Z,15.86
2019-05-30T00:22:05.620Z,15.74
2019-05-30T00:24:35.254Z,15.58
2019-05-30T00:27:04.823Z,15.60
2019-05-30T00:29:34.394Z,15.46
2019-05-30T00:32:04.766Z,15.54
2019-05-30T00:34:34.691Z,15.45
2019-05-30T00:37:04.346Z,15.56
2019-05-30T00:39:33.982Z,15.52
2019-05-30T00:42:04.224Z,15.51
2019-05-30T00:44:33.890Z,15.28
2019-05-30T00:47:04.447Z,15.25
2019-05-30T00:49:34.108Z,15.06
2019-05-30T00:52:05.057Z,15.06
2019-05-30T00:54:34.724Z,14.87
2019-05-30T00:57:04.906Z,15.09
2019-05-30T00:59:34.513Z,14.94
2019-05-30T01:02:04.951Z,14.81
2019-05-30T01:04:34.500Z,14.92
2019-05-30T01:07:05.217Z,14.98
2019-05-30T01:09:34.920Z,14.54
2019-05-30T01:12:05.294Z,14.54
2019-05-30T01:14:34.903Z,14.32
2019-05-30T01:17:05.278Z,14.27
2019-05-30T01:19:35.151Z,14.30
2019-05-30T01:22:05.482Z,14.44
2019-05-30T01:24:35.105Z,14.48
2019-05-30T01:27:05.551Z,14.71
2019-05-30T01:29:35.159Z,14.41
2019-05-30T01:32:07.638Z,14.65
2019-05-30T01:34:37.251Z,14.48
2019-05-30T01:37:07.852Z,14.39
2019-05-30T01:39:37.439Z,14.40
2019-05-30T01:42:07.975Z,14.37
2019-05-30T01:44:37.553Z,14.48
2019-05-30T01:47:08.309Z,14.61
2019-05-30T01:49:37.967Z,14.45
2019-05-30T01:52:08.612Z,14.40
2019-05-30T01:54:38.382Z,14.38
2019-05-30T01:57:08.805Z,14.46
2019-05-30T01:59:39.702Z,14.42
2019-05-30T02:02:09.325Z,14.14
2019-05-30T02:04:38.889Z,14.35
2019-05-30T02:07:09.404Z,14.30
2019-05-30T02:09:39.015Z,14.28
2019-05-30T02:12:09.629Z,14.32
2019-05-30T02:14:39.219Z,14.34
2019-05-30T02:17:10.025Z,14.25
2019-05-30T02:19:39.702Z,14.44
2019-05-30T02:22:10.083Z,14.61
2019-05-30T02:24:39.704Z,14.42
2019-05-30T02:27:10.366Z,14.59
2019-05-30T02:29:39.929Z,14.30
2019-05-30T02:32:11.026Z,14.44
2019-05-30T02:34:40.856Z,14.64
2019-05-30T02:37:12.676Z,14.40
2019-05-30T02:39:41.749Z,14.46
2019-05-30T02:42:11.769Z,14.42
2019-05-30T02:44:41.368Z,14.28
2019-05-30T02:47:11.482Z,14.34
2019-05-30T02:49:41.289Z,14.59
2019-05-30T02:52:12.590Z,14.75
2019-05-30T02:54:42.210Z,14.71
2019-05-30T02:57:12.546Z,14.82
2019-05-30T02:59:42.333Z,14.75
2019-05-30T03:02:15.223Z,14.79
2019-05-30T03:04:43.229Z,14.79
2019-05-30T03:07:13.110Z,14.42
2019-05-30T03:09:42.878Z,14.23
2019-05-30T03:12:13.481Z,14.30
2019-05-30T03:14:43.274Z,14.36
2019-05-30T03:17:14.727Z,14.12
2019-05-30T03:19:44.388Z,14.08
2019-05-30T03:22:14.128Z,14.05
2019-05-30T03:24:43.726Z,13.83
2019-05-30T03:27:14.134Z,13.81
2019-05-30T03:29:43.925Z,14.10
2019-05-30T03:32:59.581Z,14.21
2019-05-30T03:34:46.191Z,14.27
2019-05-30T03:37:26.463Z,14.37
2019-05-30T03:39:47.201Z,14.35
2019-05-30T03:42:16.741Z,14.36
2019-05-30T03:44:46.919Z,14.23
2019-05-30T03:47:20.097Z,13.98
2019-05-30T03:49:51.285Z,13.71
2019-05-30T03:52:23.699Z,13.89
2019-05-30T03:54:53.539Z,14.09
2019-05-30T03:57:30.347Z,14.10
2019-05-30T04:00:09.443Z,14.10
2019-05-30T04:02:58.396Z,14.24
2019-05-30T04:05:45.650Z,13.91
2019-05-30T04:08:19.658Z,13.84
2019-05-30T04:10:53.956Z,13.57
2019-05-30T04:13:28.112Z,13.87
2019-05-30T04:15:57.768Z,14.07
2019-05-30T04:18:27.344Z,13.81
2019-05-30T04:20:56.892Z,13.97
2019-05-30T04:23:26.477Z,14.09
2019-05-30T04:26:00.095Z,13.87
2019-05-30T04:28:27.337Z,13.95
2019-05-30T04:30:56.901Z,13.96
2019-05-30T04:33:33.023Z,14.02
2019-05-30T04:36:00.129Z,13.96
2019-05-30T04:38:29.692Z,14.18
2019-05-30T04:40:59.256Z,14.03
2019-05-30T04:43:28.826Z,14.17
2019-05-30T04:45:58.384Z,14.23
2019-05-30T04:48:27.952Z,14.29
2019-05-30T04:50:57.533Z,14.40
2019-05-30T04:53:27.094Z,14.34
2019-05-30T04:55:56.779Z,14.37
2019-05-30T04:58:29.172Z,14.45
2019-05-30T05:00:58.872Z,14.43
2019-05-30T05:03:44.397Z,14.54
2019-05-30T05:05:59.721Z,14.48
2019-05-30T05:08:29.282Z,14.48
2019-05-30T05:10:59.286Z,14.19
2019-05-30T05:13:30.011Z,14.41
2019-05-30T05:15:59.635Z,14.45
2019-05-30T05:18:29.199Z,14.59
2019-05-30T05:20:58.774Z,14.74
2019-05-30T05:23:28.350Z,14.91
2019-05-30T05:26:01.282Z,14.94
2019-05-30T05:28:29.374Z,15.04
2019-05-30T05:30:58.941Z,14.95
2019-05-30T05:33:28.517Z,15.06
2019-05-30T05:35:58.094Z,15.29
2019-05-30T05:38:28.495Z,15.40
2019-05-30T05:40:58.116Z,15.29
2019-05-30T05:43:28.690Z,15.29
2019-05-30T05:45:58.336Z,15.25
2019-05-30T05:48:28.798Z,15.45
2019-05-30T05:50:59.557Z,15.50
2019-05-30T05:53:29.336Z,15.66
2019-05-30T05:55:58.909Z,15.46
2019-05-30T05:58:29.342Z,15.59
2019-05-30T06:00:59.044Z,15.63
2019-05-30T06:03:28.608Z,15.63
2019-05-30T06:05:58.176Z,15.81
2019-05-30T06:08:27.756Z,16.03
2019-05-30T06:10:57.331Z,15.90
2019-05-30T06:13:26.891Z,15.80
2019-05-30T06:15:56.449Z,15.97
2019-05-30T06:18:26.340Z,16.02
2019-05-30T06:20:55.956Z,15.94
2019-05-30T06:23:25.770Z,15.98
2019-05-30T06:25:55.265Z,16.18
2019-05-30T06:28:26.153Z,16.39
2019-05-30T06:30:58.879Z,16.34
2019-05-30T06:33:27.273Z,16.53
2019-05-30T06:35:56.816Z,16.44
2019-05-30T06:38:27.371Z,16.38
2019-05-30T06:40:57.027Z,16.53
2019-05-30T06:43:28.118Z,16.57
2019-05-30T06:45:57.958Z,16.59
2019-05-30T06:48:28.867Z,16.51
2019-05-30T06:50:58.415Z,16.54
2019-05-30T06:53:29.251Z,16.61
2019-05-30T06:55:58.938Z,16.65
2019-05-30T06:58:41.467Z,16.77
2019-05-30T07:00:59.813Z,16.97
2019-05-30T07:03:30.435Z,16.78
2019-05-30T07:06:00.552Z,16.86
2019-05-30T07:08:30.921Z,16.94
2019-05-30T07:11:00.541Z,16.95
2019-05-30T07:13:31.517Z,17.00
2019-05-30T07:16:01.222Z,17.16
2019-05-30T07:18:33.723Z,17.41
2019-05-30T07:21:02.152Z,17.45
2019-05-30T07:23:32.064Z,17.48
2019-05-30T07:26:03.534Z,17.47
2019-05-30T07:28:34.389Z,17.42
2019-05-30T07:31:04.132Z,17.45
2019-05-30T07:33:34.574Z,17.55
2019-05-30T07:36:04.311Z,17.65
2019-05-30T07:38:34.711Z,17.70
2019-05-30T07:41:04.424Z,17.88
2019-05-30T07:43:35.195Z,17.83
2019-05-30T07:46:04.870Z,17.81
2019-05-30T07:48:34.435Z,17.89
2019-05-30T07:51:04.084Z,17.59
2019-05-30T07:53:34.845Z,17.89
2019-05-30T07:56:05.604Z,17.90
2019-05-30T07:58:35.416Z,17.76
2019-05-30T08:01:05.149Z,17.77
2019-05-30T08:03:34.823Z,17.93
2019-05-30T08:06:04.746Z,18.04
2019-05-30T08:08:34.311Z,18.02
2019-05-30T08:11:09.457Z,18.02
2019-05-30T08:13:35.315Z,18.07
2019-05-30T08:16:04.897Z,17.98
2019-05-30T08:18:35.741Z,18.04
2019-05-30T08:21:05.454Z,18.24
2019-05-30T08:23:36.212Z,18.36
2019-05-30T08:26:06.001Z,18.42
2019-05-30T08:28:36.422Z,18.54
2019-05-30T08:31:06.032Z,18.66
2019-05-30T08:33:35.654Z,18.65
2019-05-30T08:36:05.885Z,18.90
2019-05-30T08:38:37.515Z,19.04
2019-05-30T08:41:07.067Z,19.10
2019-05-30T08:43:37.774Z,19.21
2019-05-30T08:46:07.427Z,19.33
2019-05-30T08:48:38.207Z,19.32
2019-05-30T08:51:07.852Z,19.65
2019-05-30T08:53:38.437Z,19.68
2019-05-30T08:56:08.189Z,19.73
2019-05-30T08:58:38.750Z,19.82
2019-05-30T09:01:09.349Z,20.21
2019-05-30T09:03:40.169Z,20.56
2019-05-30T09:06:09.763Z,20.85
2019-05-30T09:08:40.067Z,21.38
2019-05-30T09:11:09.708Z,21.27
2019-05-30T09:13:40.330Z,21.10
2019-05-30T09:16:09.937Z,21.14
2019-05-30T09:18:40.304Z,21.00
2019-05-30T09:21:10.895Z,21.17
2019-05-30T09:23:42.120Z,20.45
2019-05-30T09:26:11.785Z,20.66
2019-05-30T09:28:42.231Z,20.88
2019-05-30T09:31:11.797Z,20.89
2019-05-30T09:33:42.650Z,20.67
2019-05-30T09:36:13.877Z,20.79
2019-05-30T09:38:43.679Z,20.71
2019-05-30T09:41:13.219Z,20.41
2019-05-30T09:43:43.370Z,21.02
2019-05-30T09:46:14.121Z,21.08
2019-05-30T09:48:44.739Z,21.36
2019-05-30T09:51:14.366Z,21.48
2019-05-30T09:53:44.059Z,21.33
2019-05-30T09:56:13.591Z,21.01
2019-05-30T09:58:43.976Z,21.45
2019-05-30T10:01:13.544Z,22.00
2019-05-30T10:03:43.660Z,22.19
2019-05-30T10:06:28.537Z,21.89
2019-05-30T10:08:47.469Z,22.36
2019-05-30T10:11:17.202Z,21.72
2019-05-30T10:13:49.171Z,22.33
2019-05-30T10:16:19.023Z,22.50
2019-05-30T10:18:49.127Z,22.16
2019-05-30T10:21:18.729Z,22.22
2019-05-30T10:23:49.455Z,22.73
2019-05-30T10:26:19.139Z,23.02
2019-05-30T10:28:49.574Z,23.19
2019-05-30T10:31:19.240Z,22.66
2019-05-30T10:33:49.400Z,22.15
2019-05-30T10:36:20.252Z,22.75
2019-05-30T10:38:50.443Z,22.91
2019-05-30T10:41:20.626Z,23.27
2019-05-30T10:43:51.155Z,23.71
2019-05-30T10:46:20.825Z,23.46
2019-05-30T10:48:50.897Z,22.92
2019-05-30T10:51:20.747Z,22.71
2019-05-30T10:53:50.808Z,22.34
2019-05-30T10:56:21.764Z,22.25
2019-05-30T10:58:51.357Z,22.78
2019-05-30T11:01:20.915Z,23.28
2019-05-30T11:03:50.563Z,23.36
2019-05-30T11:06:36.479Z,22.87
2019-05-30T11:09:07.962Z,23.52
2019-05-30T11:11:37.521Z,23.70
2019-05-30T11:14:07.307Z,23.61
2019-05-30T11:16:37.006Z,23.74
2019-05-30T11:21:39.149Z,24.10
2019-05-30T11:24:08.720Z,23.59
2019-05-30T11:26:38.281Z,23.73
2019-05-30T11:29:07.988Z,24.28
2019-05-30T11:31:37.567Z,24.12
2019-05-30T11:34:07.128Z,24.42
2019-05-30T11:36:36.768Z,24.06
2019-05-30T11:39:08.272Z,24.25
2019-05-30T11:41:37.841Z,24.14
2019-05-30T11:44:07.428Z,24.05
2019-05-30T11:46:37.041Z,24.03
2019-05-30T11:49:06.606Z,23.33
2019-05-30T11:51:37.313Z,23.25
2019-05-30T11:54:06.881Z,23.54
2019-05-30T11:56:36.460Z,23.54
2019-05-30T11:59:06.040Z,23.81
2019-05-30T12:01:35.688Z,24.34
2019-05-30T12:04:05.334Z,24.15
2019-05-30T12:06:34.897Z,24.47
2019-05-30T12:09:06.608Z,24.89
2019-05-30T12:11:36.169Z,24.67
2019-05-30T12:14:06.001Z,24.61
2019-05-30T12:16:35.643Z,24.63
2019-05-30T12:19:05.308Z,24.28
2019-05-30T12:21:34.869Z,24.44
2019-05-30T12:24:04.570Z,24.64
2019-05-30T12:26:34.268Z,24.53
2019-05-30T12:29:04.117Z,25.32
2019-05-30T12:31:33.694Z,25.45
2019-05-30T12:34:03.367Z,25.86
2019-05-30T12:36:33.019Z,26.02
2019-05-30T12:39:02.793Z,25.04
2019-05-30T12:41:32.501Z,25.08
2019-05-30T12:44:03.264Z,24.17
2019-05-30T12:46:32.986Z,23.75
2019-05-30T12:49:03.693Z,23.37
2019-05-30T12:51:33.310Z,23.34
2019-05-30T12:54:02.890Z,22.92
2019-05-30T12:56:32.527Z,22.87
2019-05-30T12:59:07.115Z,23.92
2019-05-30T13:01:33.481Z,24.58
2019-05-30T13:04:03.399Z,23.69
2019-05-30T13:06:32.989Z,23.14
2019-05-30T13:09:03.394Z,23.30
2019-05-30T13:11:33.105Z,23.34
2019-05-30T13:14:02.850Z,23.20
2019-05-30T13:16:32.455Z,23.58
2019-05-30T13:19:02.337Z,23.37
2019-05-30T13:21:31.999Z,23.33
2019-05-30T13:24:01.961Z,23.74
2019-05-30T13:26:31.607Z,23.86
2019-05-30T13:29:02.726Z,23.46
2019-05-30T13:31:32.356Z,23.68
2019-05-30T13:34:02.965Z,23.91
2019-05-30T13:36:32.682Z,23.73
2019-05-30T13:39:03.260Z,23.75
2019-05-30T13:41:32.901Z,23.48
2019-05-30T13:44:05.115Z,23.37
2019-05-30T13:46:33.828Z,23.97
2019-05-30T13:49:04.635Z,23.66
2019-05-30T13:51:34.563Z,23.55
2019-05-30T13:54:05.289Z,23.74
2019-05-30T13:56:34.942Z,23.97
2019-05-30T13:59:05.860Z,24.57
2019-05-30T14:01:35.517Z,24.58
2019-05-30T14:04:06.289Z,23.70
2019-05-30T14:06:35.889Z,23.55
2019-05-30T14:09:08.422Z,24.14
2019-05-30T14:11:38.214Z,24.05
2019-05-30T14:14:08.861Z,23.75
2019-05-30T14:16:38.533Z,23.59
2019-05-30T14:19:10.746Z,23.57
2019-05-30T14:21:39.524Z,23.47
2019-05-30T14:24:09.510Z,23.27
2019-05-30T14:26:39.077Z,23.43
2019-05-30T14:29:09.759Z,23.28
2019-05-30T14:31:39.427Z,23.01
2019-05-30T14:34:10.131Z,22.70
2019-05-30T14:36:39.776Z,23.07
2019-05-30T14:39:09.438Z,22.84
2019-05-30T14:41:41.416Z,23.66
2019-05-30T14:44:10.992Z,23.67
2019-05-30T14:46:40.645Z,23.34
2019-05-30T14:49:10.667Z,23.85
2019-05-30T14:51:40.257Z,23.91
2019-05-30T14:54:11.015Z,25.72
2019-05-30T14:56:41.431Z,25.36
2019-05-30T14:59:11.147Z,25.55
2019-05-30T15:01:40.647Z,25.08
2019-05-30T15:04:11.338Z,25.59
2019-05-30T15:06:40.947Z,27.08
2019-05-30T15:09:17.716Z,31.02
2019-05-30T15:11:41.794Z,32.45
2019-05-30T15:14:13.110Z,29.15
2019-05-30T15:16:42.672Z,29.47
2019-05-30T15:19:12.426Z,26.70
2019-05-30T15:21:42.095Z,26.09
2019-05-30T15:24:12.821Z,25.46
2019-05-30T15:26:44.275Z,24.65
2019-05-30T15:29:14.155Z,24.60
2019-05-30T15:31:43.748Z,24.06
2019-05-30T15:34:14.719Z,24.76
2019-05-30T15:36:44.342Z,24.38
2019-05-30T15:39:15.021Z,24.44
2019-05-30T15:41:45.202Z,24.21
2019-05-30T15:44:15.778Z,25.07
2019-05-30T15:46:45.319Z,25.34
2019-05-30T15:49:14.885Z,25.27
2019-05-30T15:51:44.538Z,25.29
2019-05-30T15:54:15.040Z,24.76
2019-05-30T15:56:44.642Z,24.39
2019-05-30T15:59:14.243Z,24.45
2019-05-30T16:01:43.922Z,23.98
2019-05-30T16:04:14.169Z,23.85
2019-05-30T16:06:43.725Z,23.82
2019-05-30T16:09:13.311Z,23.44
2019-05-30T16:11:42.914Z,23.22
2019-05-30T16:14:13.220Z,23.12
2019-05-30T16:16:42.834Z,23.36
2019-05-30T16:19:17.433Z,23.22
2019-05-30T16:21:43.775Z,23.42
2019-05-30T16:24:14.483Z,23.04
2019-05-30T16:26:44.093Z,23.36
2019-05-30T16:29:13.728Z,23.59
2019-05-30T16:31:43.248Z,23.17
2019-05-30T16:34:13.951Z,23.30
2019-05-30T16:36:43.603Z,23.41
2019-05-30T16:39:13.972Z,23.08
2019-05-30T16:41:43.649Z,22.83
2019-05-30T16:44:14.203Z,22.75
2019-05-30T16:46:43.735Z,22.66
2019-05-30T16:49:14.351Z,22.82
2019-05-30T16:51:43.977Z,22.97
2019-05-30T16:54:13.620Z,22.83
2019-05-30T16:56:43.197Z,22.74
2019-05-30T16:59:14.841Z,22.62
2019-05-30T17:01:44.424Z,23.36
2019-05-30T17:04:14.823Z,23.53
2019-05-30T17:06:44.455Z,23.46
2019-05-30T17:09:15.190Z,23.16
2019-05-30T17:11:44.804Z,23.65
2019-05-30T17:14:15.537Z,23.63
2019-05-30T17:16:45.135Z,23.63
2019-05-30T17:19:16.482Z,23.51
2019-05-30T17:21:46.548Z,23.07
2019-05-30T17:24:16.993Z,22.84
2019-05-30T17:26:46.570Z,22.99
2019-05-30T17:29:17.341Z,22.71
2019-05-30T17:31:46.951Z,22.79
2019-05-30T17:34:17.725Z,22.60
2019-05-30T17:36:47.350Z,22.65
2019-05-30T17:39:16.932Z,22.38
2019-05-30T17:41:46.512Z,22.28
2019-05-30T17:44:16.146Z,22.14
2019-05-30T17:46:45.738Z,22.16
2019-05-30T17:49:15.310Z,22.11
2019-05-30T17:51:49.893Z,22.01
2019-05-30T17:54:19.706Z,21.88
2019-05-30T17:56:49.303Z,21.74
2019-05-30T17:59:20.072Z,21.73
2019-05-30T18:01:49.741Z,21.65
2019-05-30T18:04:20.382Z,21.72
2019-05-30T18:06:50.074Z,21.69
2019-05-30T18:09:20.774Z,21.81
2019-05-30T18:11:52.370Z,21.54
2019-05-30T18:14:23.003Z,21.45
2019-05-30T18:16:52.634Z,21.53
2019-05-30T18:19:23.333Z,21.48
2019-05-30T18:21:53.024Z,21.43
2019-05-30T18:24:23.466Z,21.23
2019-05-30T18:26:53.077Z,21.21
2019-05-30T18:29:23.822Z,21.06
2019-05-30T18:31:53.569Z,20.99
2019-05-30T18:34:24.085Z,20.97
2019-05-30T18:36:53.684Z,20.91
2019-05-30T18:39:24.394Z,20.81
2019-05-30T18:41:54.008Z,20.77
2019-05-30T18:44:25.108Z,20.74
2019-05-30T18:46:55.037Z,20.61
2019-05-30T18:49:25.011Z,20.70
2019-05-30T18:51:54.548Z,20.68
2019-05-30T18:54:24.389Z,20.64
2019-05-30T18:56:53.971Z,20.61
2019-05-30T18:59:24.854Z,20.52
2019-05-30T19:01:54.517Z,20.39
2019-05-30T19:04:25.291Z,20.44
2019-05-30T19:06:55.024Z,20.40
2019-05-30T19:09:24.895Z,20.35
2019-05-30T19:11:54.476Z,20.35
2019-05-30T19:14:24.057Z,20.30
2019-05-30T19:16:53.630Z,20.20
2019-05-30T19:19:23.189Z,20.22
2019-05-30T19:21:52.760Z,20.21
2019-05-30T19:24:22.335Z,20.16
2019-05-30T19:26:51.913Z,20.15
2019-05-30T19:29:21.485Z,20.14
2019-05-30T19:31:51.086Z,20.09
2019-05-30T19:34:20.669Z,20.00
2019-05-30T19:36:50.748Z,20.05
2019-05-30T19:39:20.318Z,19.97
2019-05-30T19:41:56.898Z,19.92
2019-05-30T19:44:21.204Z,19.90
2019-05-30T19:46:50.767Z,19.82
2019-05-30T19:49:20.342Z,19.78
2019-05-30T19:51:49.906Z,19.77
2019-05-30T19:54:19.489Z,19.84
2019-05-30T19:56:50.584Z,19.82
2019-05-30T19:59:20.125Z,19.76
2019-05-30T20:01:49.691Z,19.73
2019-05-30T20:04:19.274Z,19.68
2019-05-30T20:06:48.915Z,19.66
2019-05-30T20:09:18.573Z,19.70
2019-05-30T20:12:02.182Z,19.67
2019-05-30T20:14:19.567Z,19.57
2019-05-30T20:16:49.146Z,19.49
2019-05-30T20:19:18.737Z,19.49
2019-05-30T20:21:48.310Z,19.54
2019-05-30T20:24:17.886Z,19.36
2019-05-30T20:26:47.483Z,19.33
2019-05-30T20:29:17.056Z,19.16
2019-05-30T20:31:46.686Z,19.19
2019-05-30T20:34:16.272Z,19.25
2019-05-30T20:36:46.860Z,19.34
2019-05-30T20:39:17.991Z,19.34
2019-05-30T20:41:47.555Z,19.33
2019-05-30T20:44:17.124Z,19.31
2019-05-30T20:46:47.325Z,19.33
2019-05-30T20:49:16.941Z,19.23
2019-05-30T20:51:47.534Z,19.27
2019-05-30T20:54:17.146Z,19.17
2019-05-30T20:56:49.792Z,19.11
2019-05-30T20:59:18.019Z,19.10
2019-05-30T21:01:49.128Z,19.07
2019-05-30T21:04:18.698Z,19.11
2019-05-30T21:06:49.679Z,19.07
2019-05-30T21:09:28.919Z,19.01
2019-05-30T21:11:53.924Z,19.03
2019-05-30T21:14:27.340Z,18.97
2019-05-30T21:16:58.477Z,18.93
2019-05-30T21:19:28.104Z,18.93
2019-05-30T21:21:57.610Z,18.88
2019-05-30T21:24:27.164Z,18.88
2019-05-30T21:26:56.899Z,18.86
2019-05-30T21:29:26.450Z,18.84
2019-05-30T21:31:56.048Z,18.73
2019-05-30T21:34:25.793Z,18.64
2019-05-30T21:36:55.549Z,18.75
2019-05-30T21:39:26.291Z,18.66
2019-05-30T21:41:55.861Z,18.61
2019-05-30T21:44:25.424Z,18.68
2019-05-30T21:46:55.068Z,18.68
2019-05-30T21:49:24.624Z,18.69
2019-05-30T21:51:56.114Z,18.62
2019-05-30T21:54:25.756Z,18.55
2019-05-30T21:56:55.387Z,18.49
2019-05-30T21:59:25.009Z,18.51
2019-05-30T22:01:57.361Z,18.43
2019-05-30T22:04:25.879Z,18.51
2019-05-30T22:06:55.430Z,18.51
2019-05-30T22:09:25.007Z,18.44
2019-05-30T22:11:54.583Z,18.47
2019-05-30T22:14:24.218Z,18.44
2019-05-30T22:16:53.776Z,18.40
2019-05-30T22:19:23.369Z,18.38
2019-05-30T22:21:53.151Z,18.40
2019-05-30T22:24:22.721Z,18.44
2019-05-30T22:26:52.678Z,18.32
2019-05-30T22:29:22.301Z,18.17
2019-05-30T22:31:53.543Z,18.36
2019-05-30T22:34:23.185Z,18.22
2019-05-30T22:36:53.033Z,18.31
2019-05-30T22:39:22.600Z,18.33
2019-05-30T22:41:52.177Z,18.33
2019-05-30T22:44:21.740Z,18.14
2019-05-30T22:46:52.327Z,18.29
2019-05-30T22:49:22.103Z,18.27
2019-05-30T22:51:51.671Z,18.09
2019-05-30T22:54:21.317Z,18.22
2019-05-30T22:56:51.507Z,18.17
2019-05-30T22:59:21.140Z,18.14
2019-05-30T23:01:53.549Z,18.17
2019-05-30T23:04:23.312Z,18.09
2019-05-30T23:06:52.869Z,18.18
2019-05-30T23:09:22.440Z,18.06
2019-05-30T23:11:52.002Z,18.22
2019-05-30T23:14:21.577Z,18.20
2019-05-30T23:16:52.222Z,18.24
2019-05-30T23:19:21.832Z,18.28
2019-05-30T23:21:51.693Z,18.24
2019-05-30T23:24:22.404Z,18.20
2019-05-30T23:26:53.752Z,18.25
2019-05-30T23:29:23.348Z,18.26
2019-05-30T23:31:54.042Z,18.32
2019-05-30T23:34:23.669Z,18.34
2019-05-30T23:36:54.478Z,18.29
2019-05-30T23:39:24.124Z,18.29
2019-05-30T23:41:53.672Z,18.33
2019-05-30T23:44:24.331Z,18.34
2019-05-30T23:46:53.888Z,18.37
2019-05-30T23:49:23.474Z,18.16
2019-05-30T23:51:54.572Z,18.21
2019-05-30T23:54:25.351Z,18.29
2019-05-30T23:56:54.923Z,18.24
2019-05-30T23:59:24.559Z,18.35
